createdAt,value
2018-12-24T00:00:57.036Z,15.92
2018-12-24T00:03:28.707Z,15.57
2018-12-24T00:06:00.157Z,16.02
2018-12-24T00:08:35.168Z,16.19
2018-12-24T00:11:16.978Z,16.15
2018-12-24T00:14:16.155Z,16.82
2018-12-24T00:16:47.619Z,15.69
2018-12-24T00:19:16.860Z,16.92
2018-12-24T00:21:50.941Z,16.60
2018-12-24T00:24:25.323Z,16.13
2018-12-24T00:26:59.556Z,16.70
2018-12-24T00:29:33.236Z,16.32
2018-12-24T00:32:14.447Z,16.71
2018-12-24T00:34:44.198Z,16.36
2018-12-24T00:37:14.013Z,16.50
2018-12-24T00:39:43.053Z,16.70
2018-12-24T00:42:15.983Z,16.65
2018-12-24T00:44:43.888Z,16.06
2018-12-24T00:47:24.582Z,16.20
2018-12-24T00:49:56.892Z,16.45
2018-12-24T00:52:26.552Z,15.99
2018-12-24T00:54:56.057Z,15.78
2018-12-24T00:57:25.633Z,16.04
2018-12-24T00:59:55.189Z,16.12
2018-12-24T01:02:24.432Z,16.54
2018-12-24T01:04:53.935Z,16.80
2018-12-24T01:07:23.558Z,16.17
2018-12-24T01:09:52.844Z,16.32
2018-12-24T01:12:24.658Z,16.95
2018-12-24T01:14:53.293Z,15.65
2018-12-24T01:17:22.894Z,15.99
2018-12-24T01:19:52.923Z,16.65
2018-12-24T01:22:22.170Z,16.71
2018-12-24T01:24:51.623Z,16.26
2018-12-24T01:27:21.135Z,15.85
2018-12-24T01:29:50.534Z,16.23
2018-12-24T01:32:19.815Z,16.43
2018-12-24T01:34:49.435Z,16.11
2018-12-24T01:37:19.242Z,15.77
2018-12-24T01:39:48.169Z,16.38
2018-12-24T01:42:17.128Z,16.59
2018-12-24T01:44:46.843Z,16.36
2018-12-24T01:47:16.237Z,16.08
2018-12-24T01:49:46.152Z,16.05
2018-12-24T01:52:15.569Z,16.14
2018-12-24T01:54:44.854Z,16.19
2018-12-24T01:57:14.807Z,14.59
2018-12-24T01:59:44.922Z,14.63
2018-12-24T02:02:17.278Z,13.70
2018-12-24T02:04:46.301Z,14.23
2018-12-24T02:07:15.762Z,14.10
2018-12-24T02:09:44.758Z,13.03
2018-12-24T02:12:14.159Z,10.72
2018-12-24T02:14:43.790Z,10.32
2018-12-24T02:17:13.378Z,10.32
2018-12-24T02:19:42.687Z,17.11
2018-12-24T02:22:12.963Z,23.53
2018-12-24T02:24:42.778Z,24.16
2018-12-24T02:27:12.451Z,29.08
2018-12-24T02:29:42.180Z,29.08
2018-12-24T02:32:11.438Z,29.08
2018-12-24T02:34:41.051Z,12.05
2018-12-24T02:37:10.557Z,12.05
2018-12-24T02:39:41.067Z,12.05
2018-12-24T02:42:10.779Z,12.32
2018-12-24T02:44:40.192Z,11.39
2018-12-24T02:47:09.506Z,11.73
2018-12-24T02:49:39.583Z,12.16
2018-12-24T02:52:09.239Z,12.32
2018-12-24T02:54:39.131Z,11.98
2018-12-24T02:57:08.666Z,12.22
2018-12-24T02:59:38.245Z,12.69
2018-12-24T03:02:07.845Z,12.12
2018-12-24T03:04:37.553Z,12.00
2018-12-24T03:07:06.858Z,12.26
2018-12-24T03:09:36.733Z,12.04
2018-12-24T03:12:05.972Z,11.52
2018-12-24T03:14:35.914Z,11.45
2018-12-24T03:17:04.930Z,12.21
2018-12-24T03:19:34.086Z,12.14
2018-12-24T03:22:04.013Z,-142.38
2018-12-24T03:24:33.607Z,12.14
2018-12-24T03:27:04.034Z,-142.38
2018-12-24T03:29:34.640Z,-142.38
2018-12-24T03:32:03.883Z,-142.38
2018-12-24T03:34:33.270Z,-142.38
2018-12-24T03:37:02.890Z,-142.38
2018-12-24T03:39:32.297Z,-142.38
2018-12-24T03:42:01.832Z,-142.38
2018-12-24T03:44:32.119Z,-90.88
2018-12-24T03:47:01.414Z,-142.38
2018-12-24T03:49:31.291Z,12.14
2018-12-24T03:52:00.655Z,-142.38
2018-12-24T03:54:30.340Z,-142.38
2018-12-24T03:56:59.999Z,-142.38
2018-12-24T03:59:29.510Z,-142.38
2018-12-24T04:01:58.559Z,-142.38
2018-12-24T04:04:28.146Z,-142.38
2018-12-24T04:06:58.058Z,-142.38
2018-12-24T04:09:28.033Z,-142.38
2018-12-24T04:11:57.500Z,-142.38
2018-12-24T04:14:27.532Z,-142.38
2018-12-24T04:16:57.216Z,-142.38
2018-12-24T04:19:27.053Z,-142.38
2018-12-24T04:21:56.797Z,-142.38
2018-12-24T04:24:26.542Z,12.14
2018-12-24T04:26:55.950Z,-142.38
2018-12-24T04:29:25.750Z,-142.38
2018-12-24T04:31:55.164Z,-142.38
2018-12-24T04:34:25.090Z,-142.38
2018-12-24T04:36:55.308Z,-142.38
2018-12-24T04:39:24.905Z,-142.38
2018-12-24T04:41:54.743Z,-142.38
2018-12-24T04:44:24.328Z,-142.38
2018-12-24T04:46:54.201Z,-142.38
2018-12-24T04:49:23.580Z,-142.38
2018-12-24T04:51:52.651Z,-142.38
2018-12-24T04:54:22.474Z,-142.38
2018-12-24T04:56:51.415Z,-142.38
2018-12-24T04:59:21.651Z,12.14
2018-12-24T05:01:50.720Z,12.14
2018-12-24T05:04:20.400Z,-142.38
2018-12-24T05:06:50.070Z,-142.38
2018-12-24T05:09:19.687Z,-90.88
2018-12-24T05:11:49.294Z,-142.38
2018-12-24T05:14:18.443Z,-142.38
2018-12-24T05:16:47.619Z,12.14
2018-12-24T05:19:16.511Z,11.74
2018-12-24T05:21:46.084Z,12.26
2018-12-24T05:24:15.475Z,12.68
2018-12-24T05:26:44.650Z,13.06
2018-12-24T05:29:13.718Z,13.06
2018-12-24T05:31:43.270Z,-142.38
2018-12-24T05:34:13.093Z,-142.38
2018-12-24T05:36:42.232Z,-142.38
2018-12-24T05:39:11.594Z,-142.38
2018-12-24T05:41:41.624Z,-142.38
2018-12-24T05:44:10.649Z,-142.38
2018-12-24T05:46:40.012Z,13.06
2018-12-24T05:49:09.021Z,13.06
2018-12-24T05:51:38.192Z,12.87
2018-12-24T05:54:07.290Z,13.87
2018-12-24T05:56:36.544Z,14.67
2018-12-24T05:59:06.926Z,15.06
2018-12-24T06:01:36.529Z,15.62
2018-12-24T06:04:05.560Z,13.60
2018-12-24T06:06:35.134Z,15.27
2018-12-24T06:09:05.500Z,15.34
2018-12-24T06:11:35.162Z,14.55
2018-12-24T06:14:04.579Z,15.17
2018-12-24T06:16:34.385Z,14.88
2018-12-24T06:19:03.517Z,15.49
2018-12-24T06:21:32.787Z,16.31
2018-12-24T06:24:02.803Z,16.83
2018-12-24T06:26:32.448Z,15.74
2018-12-24T06:29:01.908Z,15.56
2018-12-24T06:31:31.191Z,15.84
2018-12-24T06:34:01.047Z,15.43
2018-12-24T06:36:30.076Z,15.11
2018-12-24T06:38:59.411Z,16.72
2018-12-24T06:41:28.921Z,15.74
2018-12-24T06:44:06.547Z,15.79
2018-12-24T06:46:29.042Z,16.98
2018-12-24T06:48:58.384Z,16.55
2018-12-24T06:51:27.650Z,16.73
2018-12-24T06:53:58.084Z,17.16
2018-12-24T06:56:27.073Z,15.53
2018-12-24T06:58:56.380Z,16.89
2018-12-24T07:01:25.990Z,14.71
2018-12-24T07:03:55.597Z,15.89
2018-12-24T07:06:25.326Z,17.29
2018-12-24T07:08:55.661Z,17.32
2018-12-24T07:11:24.963Z,15.92
2018-12-24T07:13:54.637Z,14.27
2018-12-24T07:16:24.139Z,14.59
2018-12-24T07:18:53.463Z,15.55
2018-12-24T07:21:22.905Z,15.38
2018-12-24T07:23:52.685Z,15.97
2018-12-24T07:26:22.927Z,15.65
2018-12-24T07:28:59.072Z,15.03
2018-12-24T07:31:23.814Z,13.21
2018-12-24T07:33:53.244Z,14.39
2018-12-24T07:36:22.235Z,17.08
2018-12-24T07:38:52.352Z,14.31
2018-12-24T07:41:22.060Z,16.58
2018-12-24T07:43:51.165Z,16.64
2018-12-24T07:46:20.670Z,16.69
2018-12-24T07:48:49.966Z,15.17
2018-12-24T07:51:19.517Z,16.73
2018-12-24T07:53:48.750Z,16.55
2018-12-24T07:56:18.064Z,16.56
2018-12-24T07:58:47.481Z,15.60
2018-12-24T08:01:16.971Z,16.90
2018-12-24T08:03:46.598Z,18.13
2018-12-24T08:06:15.624Z,17.85
2018-12-24T08:08:45.202Z,17.08
2018-12-24T08:11:14.207Z,17.39
2018-12-24T08:13:43.517Z,15.14
2018-12-24T08:16:12.899Z,18.12
2018-12-24T08:18:42.183Z,18.06
2018-12-24T08:21:11.491Z,18.06
2018-12-24T08:23:40.502Z,17.55
2018-12-24T08:26:09.680Z,18.74
2018-12-24T08:28:39.351Z,18.11
2018-12-24T08:31:08.724Z,17.75
2018-12-24T08:33:38.398Z,17.79
2018-12-24T08:36:08.417Z,17.80
2018-12-24T08:38:37.619Z,17.41
2018-12-24T08:41:06.907Z,17.13
2018-12-24T08:43:36.047Z,19.03
2018-12-24T08:46:05.133Z,18.26
2018-12-24T08:48:34.508Z,18.86
2018-12-24T08:51:04.340Z,18.19
2018-12-24T08:53:33.621Z,18.33
2018-12-24T08:56:02.799Z,18.10
2018-12-24T08:58:31.693Z,17.83
2018-12-24T09:01:00.677Z,17.81
2018-12-24T09:03:30.315Z,18.52
2018-12-24T09:06:00.123Z,18.94
2018-12-24T09:08:29.478Z,19.23
2018-12-24T09:10:58.522Z,19.56
2018-12-24T09:13:28.154Z,19.61
2018-12-24T09:15:57.531Z,18.95
2018-12-24T09:18:27.376Z,18.94
2018-12-24T09:20:56.747Z,16.89
2018-12-24T09:23:26.151Z,16.55
2018-12-24T09:25:56.270Z,15.69
2018-12-24T09:28:25.612Z,15.65
2018-12-24T09:30:54.977Z,15.83
2018-12-24T09:33:25.090Z,17.83
2018-12-24T09:35:54.394Z,16.49
2018-12-24T09:38:23.437Z,17.37
2018-12-24T09:40:52.459Z,17.35
2018-12-24T09:43:43.395Z,15.92
2018-12-24T09:46:31.522Z,16.20
2018-12-24T09:49:00.781Z,17.56
2018-12-24T09:51:29.995Z,15.49
2018-12-24T09:53:59.314Z,16.60
2018-12-24T09:56:28.866Z,18.34
2018-12-24T09:58:58.158Z,17.37
2018-12-24T10:01:27.162Z,17.12
2018-12-24T10:04:02.871Z,17.92
2018-12-24T10:06:33.728Z,18.20
2018-12-24T10:09:08.433Z,19.02
2018-12-24T10:11:37.631Z,16.70
2018-12-24T10:14:06.979Z,17.86
2018-12-24T10:16:36.390Z,18.88
2018-12-24T10:19:05.459Z,18.18
2018-12-24T10:21:34.770Z,16.38
2018-12-24T10:24:03.937Z,16.95
2018-12-24T10:26:33.421Z,17.57
2018-12-24T10:29:02.299Z,19.40
2018-12-24T10:31:31.619Z,18.11
2018-12-24T10:34:01.819Z,15.88
2018-12-24T10:36:31.150Z,16.27
2018-12-24T10:39:00.130Z,17.96
2018-12-24T10:41:29.778Z,18.07
2018-12-24T10:43:59.822Z,19.22
2018-12-24T10:46:28.824Z,19.65
2018-12-24T10:48:58.836Z,20.38
2018-12-24T10:51:28.082Z,20.30
2018-12-24T10:53:57.490Z,21.12
2018-12-24T10:56:26.786Z,19.86
2018-12-24T10:58:55.994Z,20.17
2018-12-24T11:01:24.981Z,19.55
2018-12-24T11:03:54.784Z,20.40
2018-12-24T11:06:24.173Z,19.32
2018-12-24T11:08:53.142Z,20.51
2018-12-24T11:11:22.598Z,19.62
2018-12-24T11:13:52.006Z,20.93
2018-12-24T11:16:25.237Z,20.98
2018-12-24T11:18:55.231Z,19.48
2018-12-24T11:21:24.736Z,20.16
2018-12-24T11:23:54.124Z,18.44
2018-12-24T11:26:23.399Z,18.39
2018-12-24T11:28:52.859Z,17.56
2018-12-24T11:31:21.941Z,17.58
2018-12-24T11:33:51.164Z,18.26
2018-12-24T11:36:21.100Z,19.10
2018-12-24T11:38:50.146Z,19.55
2018-12-24T11:41:19.156Z,18.70
2018-12-24T11:43:48.406Z,18.37
2018-12-24T11:46:17.343Z,20.20
2018-12-24T11:48:47.098Z,20.06
2018-12-24T11:51:16.310Z,19.48
2018-12-24T11:53:45.640Z,18.11
2018-12-24T11:56:15.532Z,19.27
2018-12-24T11:58:44.943Z,18.32
2018-12-24T12:01:14.435Z,19.40
2018-12-24T12:03:44.028Z,18.51
2018-12-24T12:06:19.664Z,18.99
2018-12-24T12:08:46.144Z,19.33
2018-12-24T12:11:15.421Z,19.29
2018-12-24T12:13:44.925Z,20.10
2018-12-24T12:16:14.270Z,19.13
2018-12-24T12:18:43.951Z,19.30
2018-12-24T12:21:36.138Z,20.36
2018-12-24T12:24:29.523Z,19.45
2018-12-24T12:26:59.657Z,20.01
2018-12-24T12:29:30.091Z,18.47
2018-12-24T12:31:59.487Z,18.31
2018-12-24T12:34:30.014Z,18.49
2018-12-24T12:36:59.837Z,17.56
2018-12-24T12:39:29.128Z,19.15
2018-12-24T12:41:58.628Z,20.05
2018-12-24T12:44:27.649Z,20.29
2018-12-24T12:46:56.963Z,20.38
2018-12-24T12:49:26.563Z,22.31
2018-12-24T12:51:56.001Z,20.73
2018-12-24T12:54:25.639Z,19.31
2018-12-24T12:56:54.684Z,20.50
2018-12-24T12:59:24.261Z,20.88
2018-12-24T13:01:53.370Z,21.02
2018-12-24T13:04:22.327Z,20.66
2018-12-24T13:06:52.051Z,19.45
2018-12-24T13:09:21.771Z,17.52
2018-12-24T13:11:51.407Z,18.71
2018-12-24T13:14:21.164Z,19.77
2018-12-24T13:16:51.046Z,17.85
2018-12-24T13:19:20.506Z,19.83
2018-12-24T13:22:14.342Z,20.28
2018-12-24T13:25:02.882Z,21.33
2018-12-24T13:27:33.096Z,21.09
2018-12-24T13:30:02.459Z,21.98
2018-12-24T13:32:31.847Z,21.20
2018-12-24T13:35:02.075Z,20.65
2018-12-24T13:37:32.186Z,21.86
2018-12-24T13:40:01.924Z,23.13
2018-12-24T13:42:31.403Z,21.79
2018-12-24T13:45:01.020Z,19.98
2018-12-24T13:47:30.516Z,20.61
2018-12-24T13:49:59.935Z,20.28
2018-12-24T13:52:29.139Z,18.24
2018-12-24T13:54:58.469Z,17.68
2018-12-24T13:57:27.517Z,16.54
2018-12-24T13:59:56.547Z,17.75
2018-12-24T14:02:25.533Z,18.11
2018-12-24T14:04:54.794Z,18.18
2018-12-24T14:07:23.803Z,19.16
2018-12-24T14:09:53.524Z,18.32
2018-12-24T14:12:23.420Z,14.96
2018-12-24T14:14:53.448Z,14.77
2018-12-24T14:17:23.002Z,16.45
2018-12-24T14:19:52.536Z,17.31
2018-12-24T14:22:22.051Z,16.78
2018-12-24T14:24:51.499Z,15.75
2018-12-24T14:27:21.279Z,17.51
2018-12-24T14:29:50.570Z,17.91
2018-12-24T14:32:19.971Z,18.25
2018-12-24T14:34:49.277Z,19.75
2018-12-24T14:37:18.780Z,19.44
2018-12-24T14:39:48.767Z,17.64
2018-12-24T14:42:18.148Z,18.40
2018-12-24T14:44:47.812Z,18.73
2018-12-24T14:47:16.791Z,18.11
2018-12-24T14:49:46.798Z,17.81
2018-12-24T14:52:16.472Z,17.01
2018-12-24T14:54:46.355Z,17.94
2018-12-24T14:57:15.364Z,18.85
2018-12-24T14:59:45.151Z,17.48
2018-12-24T15:02:14.300Z,17.76
2018-12-24T15:04:44.417Z,17.04
2018-12-24T15:07:35.255Z,17.22
2018-12-24T15:10:05.104Z,18.49
2018-12-24T15:12:34.474Z,17.77
2018-12-24T15:15:03.541Z,16.83
2018-12-24T15:17:33.200Z,18.57
2018-12-24T15:20:02.252Z,17.21
2018-12-24T15:22:32.013Z,17.11
2018-12-24T15:25:01.947Z,16.65
2018-12-24T15:27:31.406Z,17.37
2018-12-24T15:30:01.344Z,18.23
2018-12-24T15:32:30.729Z,18.68
2018-12-24T15:35:00.610Z,18.52
2018-12-24T15:37:30.055Z,17.64
2018-12-24T15:39:59.670Z,16.92
2018-12-24T15:42:29.293Z,16.31
2018-12-24T15:44:58.982Z,16.46
2018-12-24T15:47:28.396Z,16.46
2018-12-24T15:49:57.882Z,16.42
2018-12-24T15:52:27.499Z,14.41
2018-12-24T15:54:56.479Z,13.69
2018-12-24T15:57:26.205Z,16.68
2018-12-24T15:59:55.478Z,17.58
2018-12-24T16:02:25.004Z,17.10
2018-12-24T16:04:54.278Z,17.39
2018-12-24T16:07:23.749Z,17.60
2018-12-24T16:09:53.219Z,16.76
2018-12-24T16:12:22.538Z,16.29
2018-12-24T16:14:52.080Z,16.30
2018-12-24T16:17:21.384Z,15.51
2018-12-24T16:19:51.022Z,15.96
2018-12-24T16:22:20.128Z,17.33
2018-12-24T16:24:49.431Z,17.81
2018-12-24T16:27:18.738Z,17.18
2018-12-24T16:29:47.982Z,18.00
2018-12-24T16:32:17.322Z,16.57
2018-12-24T16:34:46.734Z,17.22
2018-12-24T16:37:15.967Z,18.03
2018-12-24T16:39:45.322Z,17.38
2018-12-24T16:42:14.622Z,17.24
2018-12-24T16:44:43.855Z,17.22
2018-12-24T16:47:12.808Z,17.21
2018-12-24T16:49:43.050Z,17.43
2018-12-24T16:52:13.180Z,17.63
2018-12-24T16:54:42.204Z,17.44
2018-12-24T16:57:11.457Z,17.71
2018-12-24T16:59:40.760Z,17.92
2018-12-24T17:02:10.053Z,17.67
2018-12-24T17:04:39.797Z,16.66
2018-12-24T17:07:09.371Z,15.65
2018-12-24T17:09:39.180Z,15.50
2018-12-24T17:12:08.349Z,15.18
2018-12-24T17:14:37.811Z,15.42
2018-12-24T17:17:07.811Z,15.52
2018-12-24T17:19:37.821Z,14.44
2018-12-24T17:22:07.422Z,14.56
2018-12-24T17:24:36.476Z,15.31
2018-12-24T17:27:06.909Z,15.24
2018-12-24T17:29:36.331Z,16.26
2018-12-24T17:32:06.079Z,16.93
2018-12-24T17:34:35.306Z,17.61
2018-12-24T17:37:04.292Z,14.59
2018-12-24T17:39:33.769Z,16.34
2018-12-24T17:42:02.887Z,16.44
2018-12-24T17:44:32.607Z,17.51
2018-12-24T17:47:01.850Z,17.29
2018-12-24T17:49:31.191Z,17.91
2018-12-24T17:52:00.564Z,18.01
2018-12-24T17:54:29.792Z,16.14
2018-12-24T17:56:58.726Z,17.21
2018-12-24T17:59:27.708Z,17.23
2018-12-24T18:01:57.462Z,17.84
2018-12-24T18:04:27.107Z,18.17
2018-12-24T18:06:56.568Z,17.44
2018-12-24T18:09:25.591Z,17.75
2018-12-24T18:11:55.047Z,17.57
2018-12-24T18:14:25.198Z,17.99
2018-12-24T18:16:54.804Z,17.93
2018-12-24T18:19:23.903Z,17.65
2018-12-24T18:21:53.200Z,17.53
2018-12-24T18:24:22.493Z,16.96
2018-12-24T18:26:52.223Z,16.86
2018-12-24T18:29:21.216Z,16.98
2018-12-24T18:31:50.810Z,16.39
2018-12-24T18:34:19.714Z,16.75
2018-12-24T18:36:49.002Z,15.79
2018-12-24T18:39:18.118Z,14.55
2018-12-24T18:41:47.146Z,15.14
2018-12-24T18:44:17.217Z,16.17
2018-12-24T18:46:46.954Z,16.13
2018-12-24T18:49:16.630Z,17.05
2018-12-24T18:51:45.513Z,16.79
2018-12-24T18:54:14.534Z,16.49
2018-12-24T18:56:43.814Z,16.56
2018-12-24T18:59:12.710Z,16.63
2018-12-24T19:01:41.867Z,15.50
2018-12-24T19:04:11.284Z,15.68
2018-12-24T19:06:40.628Z,16.59
2018-12-24T19:09:09.848Z,17.46
2018-12-24T19:11:39.211Z,16.61
2018-12-24T19:14:09.055Z,16.21
2018-12-24T19:16:38.520Z,15.71
2018-12-24T19:19:08.236Z,16.23
2018-12-24T19:21:43.865Z,16.54
2018-12-24T19:24:08.297Z,16.43
2018-12-24T19:26:37.871Z,15.96
2018-12-24T19:29:07.276Z,15.93
2018-12-24T19:31:36.601Z,16.30
2018-12-24T19:34:05.984Z,16.32
2018-12-24T19:36:35.018Z,15.79
2018-12-24T19:39:05.912Z,14.52
2018-12-24T19:41:35.325Z,14.41
2018-12-24T19:44:04.662Z,14.64
2018-12-24T19:46:34.230Z,14.17
2018-12-24T19:49:03.111Z,14.72
2018-12-24T19:51:32.519Z,15.15
2018-12-24T19:54:02.497Z,15.44
2018-12-24T19:56:31.837Z,14.64
2018-12-24T19:59:01.454Z,14.16
2018-12-24T20:01:31.047Z,14.28
2018-12-24T20:04:00.049Z,13.74
2018-12-24T20:06:29.351Z,15.00
2018-12-24T20:08:59.148Z,14.83
2018-12-24T20:11:28.803Z,13.79
2018-12-24T20:13:58.063Z,14.65
2018-12-24T20:16:27.771Z,16.20
2018-12-24T20:18:56.791Z,15.07
2018-12-24T20:21:26.040Z,16.01
2018-12-24T20:23:56.155Z,15.57
2018-12-24T20:26:25.033Z,15.38
2018-12-24T20:28:53.996Z,15.20
2018-12-24T20:31:23.778Z,14.94
2018-12-24T20:33:52.792Z,14.02
2018-12-24T20:36:22.665Z,15.61
2018-12-24T20:38:51.650Z,14.75
2018-12-24T20:41:20.709Z,15.03
2018-12-24T20:43:49.976Z,13.73
2018-12-24T20:46:19.571Z,14.77
2018-12-24T20:48:49.190Z,14.72
2018-12-24T20:51:18.100Z,15.91
2018-12-24T20:53:48.325Z,14.55
2018-12-24T20:56:17.237Z,14.17
2018-12-24T20:58:46.597Z,15.35
2018-12-24T21:01:15.642Z,15.18
2018-12-24T21:03:44.728Z,14.74
2018-12-24T21:06:14.359Z,15.43
2018-12-24T21:08:44.452Z,15.60
2018-12-24T21:11:13.931Z,14.96
2018-12-24T21:13:42.857Z,14.65
2018-12-24T21:16:12.210Z,13.65
2018-12-24T21:18:41.686Z,15.28
2018-12-24T21:21:11.013Z,15.68
2018-12-24T21:23:40.430Z,13.96
2018-12-24T21:26:09.952Z,14.07
2018-12-24T21:28:40.215Z,12.51
2018-12-24T21:31:09.555Z,13.20
2018-12-24T21:33:39.063Z,13.05
2018-12-24T21:36:08.873Z,13.33
2018-12-24T21:38:38.280Z,12.66
2018-12-24T21:41:07.587Z,13.44
2018-12-24T21:43:36.975Z,12.26
2018-12-24T21:46:06.287Z,11.60
2018-12-24T21:48:35.377Z,13.02
2018-12-24T21:51:04.778Z,12.50
2018-12-24T21:53:33.793Z,11.92
2018-12-24T21:56:03.070Z,12.31
2018-12-24T21:58:32.108Z,13.10
2018-12-24T22:01:01.288Z,12.87
2018-12-24T22:03:31.112Z,12.04
2018-12-24T22:06:01.704Z,11.99
2018-12-24T22:08:31.351Z,11.46
2018-12-24T22:11:00.805Z,11.08
2018-12-24T22:13:30.935Z,11.81
2018-12-24T22:16:02.290Z,12.13
2018-12-24T22:18:32.346Z,12.47
2018-12-24T22:21:02.326Z,11.60
2018-12-24T22:23:31.450Z,12.12
2018-12-24T22:26:00.924Z,12.76
2018-12-24T22:28:30.830Z,11.36
2018-12-24T22:31:00.512Z,12.20
2018-12-24T22:33:30.161Z,13.09
2018-12-24T22:35:59.562Z,13.16
2018-12-24T22:38:28.711Z,12.84
2018-12-24T22:40:58.357Z,13.65
2018-12-24T22:43:28.065Z,13.63
2018-12-24T22:45:57.791Z,13.47
2018-12-24T22:48:27.325Z,13.01
2018-12-24T22:50:56.322Z,13.52
2018-12-24T22:53:25.315Z,13.98
2018-12-24T22:55:54.903Z,14.39
2018-12-24T22:58:24.280Z,12.32
2018-12-24T23:00:53.891Z,12.63
2018-12-24T23:03:22.875Z,14.01
2018-12-24T23:05:52.491Z,13.61
2018-12-24T23:08:21.464Z,14.11
2018-12-24T23:10:50.429Z,13.90
2018-12-24T23:13:20.097Z,14.11
2018-12-24T23:15:49.387Z,14.36
2018-12-24T23:18:19.238Z,14.01
2018-12-24T23:20:49.649Z,14.14
2018-12-24T23:23:18.925Z,13.12
2018-12-24T23:25:48.875Z,13.61
2018-12-24T23:28:17.880Z,13.54
2018-12-24T23:30:46.822Z,13.43
2018-12-24T23:33:16.030Z,13.33
2018-12-24T23:35:45.336Z,13.16
2018-12-24T23:38:15.041Z,13.57
2018-12-24T23:40:44.339Z,12.64
2018-12-24T23:43:13.534Z,13.52
2018-12-24T23:45:43.041Z,13.27
2018-12-24T23:48:12.011Z,13.26
2018-12-24T23:50:40.977Z,13.28
2018-12-24T23:53:10.117Z,13.71
2018-12-24T23:55:39.420Z,13.21
2018-12-24T23:58:08.729Z,12.95
